createdAt,value
2022-12-31T00:02:33.216Z,24.85
2022-12-31T00:07:58.428Z,24.20
2022-12-31T00:13:22.228Z,24.58
2022-12-31T00:18:47.309Z,21.52
2022-12-31T00:24:13.626Z,23.05
2022-12-31T00:29:37.542Z,23.00
2022-12-31T00:35:02.213Z,23.02
2022-12-31T00:40:29.602Z,22.77
2022-12-31T00:45:53.484Z,23.20
2022-12-31T00:51:20.960Z,22.17
2022-12-31T00:56:46.138Z,21.33
2022-12-31T01:02:10.345Z,22.58
2022-12-31T01:07:34.503Z,23.25
2022-12-31T01:13:01.165Z,23.33
2022-12-31T01:18:25.075Z,20.73
2022-12-31T01:23:50.822Z,22.20
2022-12-31T01:29:17.037Z,20.88
2022-12-31T01:34:40.780Z,21.10
2022-12-31T01:40:05.177Z,19.95
2022-12-31T01:45:30.666Z,20.23
2022-12-31T01:50:55.853Z,19.88
2022-12-31T01:56:23.128Z,21.00
2022-12-31T02:01:48.908Z,17.20
2022-12-31T02:07:13.392Z,20.48
2022-12-31T02:12:37.323Z,19.27
2022-12-31T02:18:08.348Z,20.73
2022-12-31T02:24:09.264Z,21.43
2022-12-31T02:30:03.275Z,19.00
2022-12-31T02:35:31.668Z,19.10
2022-12-31T02:40:56.028Z,20.38
2022-12-31T02:46:30.512Z,20.63
2022-12-31T02:52:00.201Z,21.00
2022-12-31T02:57:30.851Z,21.35
2022-12-31T03:02:56.899Z,22.42
2022-12-31T03:08:23.648Z,21.20
2022-12-31T03:13:47.510Z,22.55
2022-12-31T03:19:32.712Z,23.33
2022-12-31T03:25:16.679Z,20.83
2022-12-31T03:30:44.280Z,21.27
2022-12-31T03:36:14.065Z,22.05
2022-12-31T03:41:37.860Z,21.40
2022-12-31T03:47:01.679Z,23.33
2022-12-31T03:52:26.931Z,20.75
2022-12-31T03:57:50.865Z,21.33
2022-12-31T04:03:14.765Z,22.77
2022-12-31T04:08:39.989Z,21.90
2022-12-31T04:14:03.768Z,22.88
2022-12-31T04:19:27.669Z,21.20
2022-12-31T04:24:53.277Z,23.73
2022-12-31T04:30:17.063Z,22.65
2022-12-31T04:35:40.963Z,20.98
2022-12-31T04:41:18.451Z,22.08
2022-12-31T04:46:42.581Z,23.00
2022-12-31T04:52:06.639Z,21.60
2022-12-31T04:57:31.818Z,23.13
2022-12-31T05:02:55.633Z,23.35
2022-12-31T05:08:19.872Z,22.33
2022-12-31T05:13:45.645Z,23.23
2022-12-31T05:19:09.686Z,25.45
2022-12-31T05:24:34.588Z,24.45
2022-12-31T05:30:00.158Z,21.65
2022-12-31T05:35:24.035Z,22.48
2022-12-31T05:40:47.911Z,22.65
2022-12-31T05:46:13.217Z,22.50
2022-12-31T05:51:37.124Z,20.75
2022-12-31T05:57:01.030Z,20.23
2022-12-31T06:02:26.561Z,20.55
2022-12-31T06:07:50.386Z,24.20
2022-12-31T06:13:14.244Z,20.58
2022-12-31T06:18:39.507Z,21.38
2022-12-31T06:24:03.335Z,20.40
2022-12-31T06:29:27.152Z,18.98
2022-12-31T06:34:52.396Z,16.45
2022-12-31T06:40:16.396Z,17.27
2022-12-31T06:45:40.671Z,16.13
2022-12-31T06:51:11.880Z,17.75
2022-12-31T06:56:39.432Z,18.55
2022-12-31T07:02:22.318Z,19.05
2022-12-31T07:08:09.637Z,19.48
2022-12-31T07:13:51.607Z,20.92
2022-12-31T07:19:26.280Z,22.65
2022-12-31T07:24:52.257Z,23.88
2022-12-31T07:30:18.798Z,25.90
2022-12-31T07:35:52.580Z,23.48
2022-12-31T07:41:24.483Z,24.58
2022-12-31T07:46:56.172Z,23.02
2022-12-31T07:52:21.066Z,23.73
2022-12-31T07:57:52.473Z,24.55
2022-12-31T08:03:28.901Z,24.85
2022-12-31T08:08:59.278Z,24.40
2022-12-31T08:14:25.499Z,24.52
2022-12-31T08:19:50.000Z,24.80
2022-12-31T08:25:20.989Z,23.30
2022-12-31T08:36:28.384Z,21.83
2022-12-31T08:41:55.778Z,25.38
2022-12-31T08:47:39.527Z,24.85
2022-12-31T08:53:03.937Z,25.85
2022-12-31T08:58:41.517Z,25.15
2022-12-31T09:04:18.883Z,23.98
2022-12-31T09:09:55.053Z,25.02
2022-12-31T09:15:26.411Z,24.20
2022-12-31T09:20:51.974Z,25.27
2022-12-31T09:26:31.335Z,25.10
2022-12-31T09:32:00.693Z,24.90
2022-12-31T09:37:37.821Z,24.90
2022-12-31T09:43:21.560Z,24.40
2022-12-31T09:49:20.465Z,25.38
2022-12-31T09:54:55.078Z,21.92
2022-12-31T10:00:23.509Z,24.25
2022-12-31T10:06:19.108Z,22.98
2022-12-31T10:12:00.696Z,23.13
2022-12-31T10:23:27.515Z,29.63
2022-12-31T10:28:57.285Z,22.67
2022-12-31T10:34:28.111Z,21.48
2022-12-31T10:40:01.784Z,20.98
2022-12-31T10:45:58.184Z,21.10
2022-12-31T10:52:01.071Z,21.40
2022-12-31T10:58:04.249Z,22.10
2022-12-31T11:04:03.492Z,24.42
2022-12-31T11:10:04.335Z,23.38
2022-12-31T11:15:52.551Z,25.03
2022-12-31T11:21:28.561Z,25.42
2022-12-31T11:27:06.530Z,26.75
2022-12-31T11:32:46.370Z,30.05
2022-12-31T11:38:23.148Z,33.03
2022-12-31T11:43:54.678Z,24.95
2022-12-31T11:49:31.925Z,24.88
2022-12-31T11:55:20.196Z,29.15
2022-12-31T12:00:52.038Z,28.83
2022-12-31T12:06:18.211Z,24.48
2022-12-31T12:11:43.822Z,24.85
2022-12-31T12:17:10.571Z,21.50
2022-12-31T12:22:34.393Z,22.70
2022-12-31T12:27:59.869Z,24.02
2022-12-31T12:33:23.989Z,23.20
2022-12-31T12:38:48.021Z,23.42
2022-12-31T12:44:17.249Z,25.05
2022-12-31T12:49:43.228Z,24.50
2022-12-31T12:55:18.128Z,23.35
2022-12-31T13:00:50.842Z,23.05
2022-12-31T13:06:29.061Z,19.88
2022-12-31T13:12:07.715Z,24.42
2022-12-31T13:17:55.059Z,24.10
2022-12-31T13:23:27.358Z,25.40
2022-12-31T13:28:53.875Z,24.70
2022-12-31T13:34:23.463Z,25.45
2022-12-31T13:39:52.292Z,24.08
2022-12-31T13:45:23.877Z,22.13
2022-12-31T13:50:53.970Z,23.08
2022-12-31T13:56:23.974Z,25.20
2022-12-31T14:01:53.895Z,25.48
2022-12-31T14:07:23.130Z,25.23
2022-12-31T14:12:53.511Z,25.88
2022-12-31T14:18:24.697Z,24.00
2022-12-31T14:23:57.361Z,21.77
2022-12-31T14:29:33.118Z,26.25
2022-12-31T14:35:02.673Z,27.73
2022-12-31T14:40:33.909Z,25.70
2022-12-31T14:51:29.728Z,25.92
2022-12-31T14:56:55.166Z,26.67
2022-12-31T15:02:28.752Z,26.23
2022-12-31T15:08:23.782Z,27.70
2022-12-31T15:14:14.587Z,27.65
2022-12-31T15:20:19.807Z,29.02
2022-12-31T15:25:49.230Z,27.10
2022-12-31T15:31:20.522Z,26.20
2022-12-31T15:36:54.496Z,25.92
2022-12-31T15:42:39.823Z,26.15
2022-12-31T15:48:15.549Z,31.88
2022-12-31T15:53:41.921Z,28.30
2022-12-31T15:59:12.243Z,30.50
2022-12-31T16:04:44.405Z,33.53
2022-12-31T16:10:10.318Z,48.40
2022-12-31T16:15:35.708Z,64.45
2022-12-31T16:21:01.103Z,93.30
2022-12-31T16:26:27.118Z,80.72
2022-12-31T16:31:53.230Z,56.70
2022-12-31T16:37:20.443Z,47.70
2022-12-31T16:42:46.561Z,52.85
2022-12-31T16:48:17.140Z,47.35
2022-12-31T16:53:43.438Z,44.77
2022-12-31T16:59:16.423Z,42.95
2022-12-31T17:04:46.031Z,42.70
2022-12-31T17:10:22.510Z,42.38
2022-12-31T17:15:46.729Z,42.50
2022-12-31T17:21:12.286Z,53.15
2022-12-31T17:26:39.326Z,43.47
2022-12-31T17:32:05.598Z,44.90
2022-12-31T17:37:31.381Z,48.63
2022-12-31T17:42:57.006Z,52.80
2022-12-31T17:48:24.387Z,52.08
2022-12-31T17:53:48.358Z,55.78
2022-12-31T17:59:17.929Z,61.70
2022-12-31T18:04:41.760Z,59.78
2022-12-31T18:10:06.180Z,57.38
2022-12-31T18:15:31.877Z,61.45
2022-12-31T18:20:58.537Z,60.10
2022-12-31T18:26:24.091Z,54.72
2022-12-31T18:31:51.075Z,55.22
2022-12-31T18:37:21.491Z,49.95
2022-12-31T18:42:46.029Z,50.90
2022-12-31T18:48:11.567Z,49.85
2022-12-31T18:53:35.377Z,48.95
2022-12-31T18:59:00.804Z,47.70
2022-12-31T19:04:29.406Z,44.95
2022-12-31T19:09:58.347Z,49.42
2022-12-31T19:15:29.621Z,59.97
2022-12-31T19:20:54.990Z,58.42
2022-12-31T19:26:21.533Z,61.05
2022-12-31T19:31:45.864Z,63.10
2022-12-31T19:37:14.997Z,56.42
2022-12-31T19:42:38.905Z,72.40
2022-12-31T19:48:02.768Z,98.50
2022-12-31T19:53:28.595Z,85.22
2022-12-31T19:58:52.390Z,82.88
2022-12-31T20:04:16.196Z,86.40
2022-12-31T20:09:41.438Z,79.13
2022-12-31T20:15:05.619Z,78.85
2022-12-31T20:20:30.221Z,77.28
2022-12-31T20:26:01.841Z,71.60
2022-12-31T20:31:26.544Z,68.80
2022-12-31T20:36:50.469Z,69.95
2022-12-31T20:42:15.627Z,64.85
2022-12-31T20:47:39.542Z,71.18
2022-12-31T20:53:03.601Z,67.30
2022-12-31T20:58:28.905Z,62.83
2022-12-31T21:04:04.712Z,62.17
2022-12-31T21:09:28.991Z,54.30
2022-12-31T21:14:54.252Z,59.38
2022-12-31T21:20:19.701Z,61.65
2022-12-31T21:25:44.292Z,60.80
2022-12-31T21:31:10.444Z,63.58
2022-12-31T21:36:34.313Z,62.10
2022-12-31T21:41:58.131Z,60.55
2022-12-31T21:47:47.088Z,70.45
2022-12-31T21:53:11.498Z,91.38
2022-12-31T21:58:35.581Z,90.32
2022-12-31T22:04:00.697Z,86.32
2022-12-31T22:09:24.505Z,85.90
2022-12-31T22:15:14.884Z,85.32
2022-12-31T22:20:33.461Z,83.32
2022-12-31T22:25:57.373Z,74.25
2022-12-31T22:31:24.520Z,77.13
2022-12-31T22:36:49.898Z,73.80
2022-12-31T22:42:13.729Z,72.70
2022-12-31T22:47:37.497Z,69.72
2022-12-31T22:53:02.635Z,65.50
2022-12-31T22:58:27.154Z,59.53
2022-12-31T23:03:52.854Z,55.00
2022-12-31T23:09:36.536Z,45.75
2022-12-31T23:15:18.056Z,47.40
2022-12-31T23:20:59.656Z,48.88
2022-12-31T23:26:24.891Z,46.13
2022-12-31T23:31:48.983Z,57.53
2022-12-31T23:37:13.311Z,56.38
2022-12-31T23:42:38.631Z,53.65
2022-12-31T23:48:03.229Z,51.90
2022-12-31T23:53:27.107Z,42.35
2022-12-31T23:58:54.913Z,39.67
